Argus, California
Current Conditions -  °F | °C
As of 11:55 AM on Monday 22 Dec 2014 (Local Time) from KBYS Reporting Station
Clear Clear  
Wind Chill: 66°   Ceiling: Unl
Heat Index: 66°   Visibility: 10mi
Dew Point: 41°   Wind: 1mph
Humidity: 40%   Direction: NA
Pressure: 30.07"   Gusts: NA
Location:  35.6496°N, 117.375°W
Report Text: KBYS 221955Z AUTO VRB01KT 10SM CLR 19/05 A3007 RMK AO2 SLP182 T01900052 $
Loading
Personal Weather Stations






























Interactive Weather Map New forecast layout! Learn more

10-Day Weather Forecast

Advertisements
Track Severe Weather on mobile